Terminal Aerodrome Forecast
Issued by NWS Chicago, IL

Home | Current Version | Previous Version | Text Only | Print | Product List | Glossary Off
Versions: 1 2 3 4 5 6 7 8 9 10 11 12 13 14 15 16 17 18 19 20 21 22 23 24 25 26 27 28

000
FTUS43 KLOT 151457 AAA
TAFRFD
TAF AMD
KRFD 151457Z 1515/1612 31020G30KT P6SM FEW017 OVC025
     FM151900 32015G22KT P6SM BKN025
     FM152300 31010KT P6SM BKN050
     FM160200 30005KT P6SM SCT250=

USA.gov is the U.S. government's official web portal to all federal, state and local government web resources and services.